Latest Coastal Weather Observations for Taree Airport

IDN60701

Issued at 2:01 pm EST Tuesday 31 May 2016 (issued every 10 minutes, with the page automatically refreshed every 10 minutes)

About coastal observations | Map of coastal stations | Coastal observations for NSW | Marine services | Other Formats
Station Details ID: 060141 Name: TAREE AIRPORT AWS Lat: -31.89 Lon: 152.51 Height: 8.0 m
Data from the previous 72 hours. | See also: Recent months at Taree Airport
Date/Time
EST
Temp

°C
Wind Pressure Rain
since 9am
mm
Weather Cloud Vis
km
Sea
Height
m
Swell
Dir
 
Speed
knots
Gust
knots
hPa Trend Height
m
Period
s
Dir
31/02:00pm 20.0 E 8 11 1025.4 - 0.0 - - 10 - - - -
31/01:30pm 20.2 ESE 5 9 1025.5 - 0.0 - - 10 - - - -
31/01:00pm 20.0 ESE 4 8 1025.9 - 0.0 - - 10 - - - -
31/12:30pm 19.2 SW 3 7 1026.3 - 0.0 - - 10 - - - -
31/12:00pm 19.2 SW 5 7 1026.6 - 0.0 - - 10 - - - -
31/11:30am 17.7 WSW 5 7 1027.2 - 0.0 - - 10 - - - -
31/11:00am 16.6 W 8 10 1027.8 - 0.0 - - 10 - - - -
31/10:30am 14.9 WSW 8 10 1028.2 - 0.0 - - 10 - - - -
31/10:00am 12.7 W 5 7 1028.6 - 0.0 - - 10 - - - -
31/09:30am 10.6 W 7 9 1028.8 - 0.0 - - 10 - - - -
31/09:00am 9.6 WSW 5 6 1028.9 - 0.0 - - 10 - - - -
31/08:30am 8.7 W 6 8 1028.7 - 0.0 - - 10 - - - -
31/08:00am 8.1 W 6 7 1028.6 - 0.0 - - 10 - - - -
31/07:30am 7.1 W 8 10 1028.3 - 0.0 - - 10 - - - -
31/07:00am 5.9 W 7 9 1028.1 - 0.0 - - 10 - - - -
31/06:30am 6.4 W 6 7 1027.8 - 0.0 - - 10 - - - -
31/06:00am 6.7 W 5 6 1027.3 - 0.0 - - 10 - - - -
31/05:30am 6.5 WNW 5 7 1027.2 - 0.0 - - 10 - - - -
31/05:00am 6.4 WSW 6 9 1026.8 - 0.0 - - 10 - - - -
31/04:30am 6.8 W 6 8 1026.7 - 0.0 - - 10 - - - -
31/04:00am 7.3 W 6 8 1026.5 - 0.0 - - 10 - - - -
31/03:30am 7.5 WSW 7 9 1026.4 - 0.0 - - 10 - - - -
31/03:00am 6.3 SSW 3 4 1026.8 - 0.0 - - 10 - - - -
31/02:30am 8.0 WNW 7 10 1026.3 - 0.0 - - 10 - - - -
31/02:00am 7.2 W 6 7 1026.3 - 0.0 - - 10 - - - -
31/01:30am 6.5 W 4 5 1026.6 - 0.0 - - 10 - - - -
31/01:00am 7.5 W 5 6 1026.7 - 0.0 - - 10 - - - -
31/12:30am 6.8 W 5 6 1026.5 - 0.0 - - 10 - - - -
31/12:00am 7.1 WSW 6 7 1026.6 - 0.0 - - 10 - - - -
 
Date/Time
EST
Temp

°C
Wind Pressure Rain
since 9am
mm
Weather Cloud Vis
km
Sea
Height
m
Swell
Dir
 
Speed
knots
Gust
knots
hPa Trend Height
m
Period
s
Dir
30/11:30pm 7.6 W 4 5 1026.8 - 0.0 - - 10 - - - -
30/11:00pm 7.5 WSW 4 6 1026.9 - 0.0 - - 10 - - - -
30/10:30pm 7.9 W 3 4 1026.9 - 0.0 - - 10 - - - -
30/10:00pm 8.3 WSW 5 6 1026.8 - 0.0 - - 10 - - - -
30/09:30pm 8.5 W 3 5 1026.7 - 0.0 - - 10 - - - -
30/09:00pm 9.9 NW 6 7 1026.4 - 0.0 - - 10 - - - -
30/08:30pm 6.8 NW 5 6 1026.2 - 0.0 - - 10 - - - -
30/08:00pm 8.3 NW 5 6 1025.9 - 0.0 - - 10 - - - -
30/07:30pm 10.1 WNW 5 5 1025.6 - 0.0 - - 10 - - - -
30/07:00pm 13.1 SW 4 5 1025.4 - 0.0 - - 10 - - - -
30/06:30pm 13.0 SSW 4 5 1025.3 - 0.0 - - 10 - - - -
30/06:00pm 13.3 S 3 4 1024.9 - 0.0 - - 10 - - - -
30/05:30pm 14.3 SE 3 4 1024.5 - 0.0 - - 10 - - - -
30/05:00pm 15.1 SE 5 6 1024.1 - 0.0 - - 10 - - - -
30/04:30pm 16.9 SE 6 7 1023.8 - 0.0 - - 10 - - - -
30/04:00pm 17.9 SE 7 10 1023.5 - 0.0 - - 10 - - - -
30/03:30pm 18.5 SE 7 9 1023.1 - 0.0 - - 10 - - - -
30/03:00pm 19.0 SE 7 10 1022.8 - 0.0 - - 10 - - - -
30/02:30pm 19.5 E 5 7 1022.7 - 0.0 - - 10 - - - -
30/02:00pm 19.3 ESE 5 7 1022.5 - 0.0 - - 10 - - - -
30/01:30pm 20.2 NE 5 8 1022.7 - 0.0 - - 10 - - - -
30/01:00pm 19.7 N 4 7 1022.9 - 0.0 - - 10 - - - -
30/12:30pm 18.9 NNW 4 7 1023.1 - 0.0 - - 10 - - - -
30/12:00pm 18.3 WSW 4 6 1023.6 - 0.0 - - 10 - - - -
30/11:30am 17.3 WNW 6 9 1024.1 - 0.0 - - 10 - - - -
30/11:00am 16.5 WNW 7 9 1024.4 - 0.0 - - 10 - - - -
30/10:30am 15.0 W 7 8 1024.9 - 0.0 - - 10 - - - -
30/10:00am 13.4 W 7 10 1025.2 - 0.0 - - 10 - - - -
30/09:30am 12.0 WSW 9 12 1025.1 - 0.0 - - 10 - - - -
30/09:00am 10.6 WSW 8 11 1025.1 - 0.0 - - 10 - - - -
30/08:30am 8.8 WSW 9 12 1024.8 - 0.0 - - 10 - - - -
30/08:00am 7.4 WSW 8 10 1024.6 - 0.0 - - 10 - - - -
30/07:30am 6.4 WSW 7 9 1024.4 - 0.0 - - 10 - - - -
30/07:00am 5.2 SW 3 6 1024.0 - 0.0 - - 10 - - - -
30/06:30am 6.0 W 9 12 1023.2 - 0.0 - - 10 - - - -
30/06:00am 6.4 WNW 6 7 1023.0 - 0.0 - - 10 - - - -
30/05:30am 6.4 W 7 9 1022.6 - 0.0 - - 10 - - - -
30/05:00am 6.5 W 6 8 1022.4 - 0.0 - - 10 - - - -
30/04:30am 6.3 W 5 6 1022.1 - 0.0 - - 10 - - - -
30/04:00am 6.6 W 6 7 1021.8 - 0.0 - - 10 - - - -
30/03:30am 6.1 W 6 7 1021.6 - 0.0 - - 10 - - - -
30/03:00am 6.7 W 5 7 1021.3 - 0.0 - - 10 - - - -
30/02:30am 7.5 W 7 9 1021.3 - 0.0 - - 10 - - - -
30/02:00am 6.4 WNW 4 5 1021.4 - 0.0 - - 10 - - - -
30/01:30am 3.3 N 4 5 1021.4 - 0.0 - - 10 - - - -
30/01:00am 6.9 WSW 7 10 1021.0 - 0.0 - - 10 - - - -
30/12:30am 6.3 W 5 6 1021.0 - 0.0 - - 10 - - - -
30/12:00am 6.5 WSW 3 5 1020.9 - 0.0 - - 10 - - - -
 
Date/Time
EST
Temp

°C
Wind Pressure Rain
since 9am
mm
Weather Cloud Vis
km
Sea
Height
m
Swell
Dir
 
Speed
knots
Gust
knots
hPa Trend Height
m
Period
s
Dir
29/11:30pm 7.0 NW 4 5 1020.9 - 0.0 - - 10 - - - -
29/11:00pm 7.8 WNW 5 7 1020.9 - 0.0 - - 10 - - - -
29/10:30pm 7.0 WSW 4 7 1020.9 - 0.0 - - 10 - - - -
29/10:00pm 7.6 WSW 5 6 1020.9 - 0.0 - - 10 - - - -
29/09:30pm 6.8 W 5 6 1020.8 - 0.0 - - 10 - - - -
29/09:00pm 7.9 NW 1 4 1020.7 - 0.0 - - 10 - - - -
29/08:30pm 9.6 W 5 7 1020.5 - 0.0 - - 10 - - - -
29/08:00pm 8.3 WNW 4 5 1020.3 - 0.0 - - 10 - - - -
29/07:30pm 8.3 NW 3 5 1019.9 - 0.0 - - 10 - - - -
29/07:00pm 9.2 NW 4 5 1019.5 - 0.0 - - 10 - - - -
29/06:30pm 11.1 NW 3 4 1018.9 - 0.0 - - 10 - - - -
29/06:00pm 12.5 CALM 0 0 1018.5 - 0.0 - - 10 - - - -
29/05:30pm 13.0 CALM 0 0 1018.1 - 0.0 - - 10 - - - -
29/05:00pm 14.9 SSW 5 5 1017.7 - 0.0 - - 10 - - - -
29/04:30pm 16.3 S 6 7 1017.3 - 0.0 - - 10 - - - -
29/04:00pm 17.5 S 7 9 1016.8 - 0.0 - - 10 - - - -
29/03:30pm 18.4 S 7 9 1016.4 - 0.0 - - 10 - - - -
29/03:00pm 18.6 SW 7 10 1016.3 - 0.0 - - 10 - - - -
29/02:30pm 18.8 SW 8 13 1016.1 - 0.0 - - 10 - - - -
29/02:00pm 18.4 SW 10 14 1016.1 - 0.0 - - 10 - - - -
29/01:30pm 18.4 SW 8 15 1015.9 - 0.0 - - 10 - - - -
29/01:00pm 17.8 SW 11 15 1016.1 - 0.0 - - 10 - - - -
29/12:30pm 17.9 SW 12 17 1016.2 - 0.0 - - 10 - - - -
29/12:00pm 17.0 WSW 12 17 1016.6 - 0.0 - - 10 - - - -
29/11:30am 17.1 SW 14 18 1016.8 - 0.0 - - 10 - - - -
29/11:00am 16.6 SW 12 16 1017.2 - 0.0 - - 10 - - - -
29/10:30am 15.8 WSW 9 14 1017.4 - 0.0 - - 10 - - - -
29/10:00am 15.6 W 12 18 1017.4 - 0.0 - - 10 - - - -
29/09:30am 15.2 W 10 15 1017.4 - 0.0 - - 10 - - - -
29/09:00am 14.0 W 8 12 1017.3 - 0.0 - - 10 - - - -
29/08:30am 13.0 W 7 12 1017.1 - 0.0 - - 10 - - - -
29/08:00am 11.9 W 5 8 1016.7 - 0.0 - - 10 - - - -
29/07:30am 9.6 CALM 0 3 1016.3 - 0.0 - - 10 - - - -
29/07:00am 10.0 W 6 8 1015.9 - 0.0 - - 10 - - - -
29/06:30am 10.3 WNW 9 13 1015.5 - 0.0 - - 10 - - - -
29/06:00am 10.1 W 7 9 1015.5 - 0.0 - - 10 - - - -
29/05:30am 10.7 W 8 11 1015.1 - 0.0 - - 10 - - - -
29/05:00am 11.2 W 9 13 1014.7 - 0.0 - - 10 - - - -
29/04:30am 11.1 WNW 7 10 1014.6 - 0.0 - - 10 - - - -
29/04:00am 10.9 WNW 6 8 1014.2 - 0.0 - - 10 - - - -
29/03:30am 11.2 WNW 6 9 1013.9 - 0.0 - - 10 - - - -
29/03:00am 11.4 WNW 6 8 1013.6 - 0.0 - - 10 - - - -
29/02:30am 11.4 WNW 6 8 1013.4 - 0.0 - - 10 - - - -
29/02:00am 11.8 WNW 7 8 1013.4 - 0.0 - - 10 - - - -
29/01:30am 12.3 W 7 9 1013.2 - 0.0 - - 10 - - - -
29/01:00am 12.5 WNW 7 11 1012.8 - 0.0 - - 10 - - - -
29/12:30am 12.5 WNW 8 11 1012.8 - 0.0 - - 10 - - - -
29/12:00am 12.2 WNW 7 10 1012.7 - 0.0 - - 10 - - - -
 
Date/Time
EST
Temp

°C
Wind Pressure Rain
since 9am
mm
Weather Cloud Vis
km
Sea
Height
m
Swell
Dir
 
Speed
knots
Gust
knots
hPa Trend Height
m
Period
s
Dir
28/11:30pm 12.2 W 6 8 1012.7 - 0.0 - - 10 - - - -
28/11:00pm 12.3 W 7 9 1012.7 - 0.0 - - 10 - - - -
28/10:30pm 12.5 W 7 9 1012.4 - 0.0 - - 10 - - - -
28/10:00pm 12.5 WNW 6 9 1012.2 - 0.0 - - 10 - - - -
28/09:30pm 12.7 W 5 8 1012.0 - 0.0 - - 10 - - - -
28/09:00pm 12.7 W 8 12 1011.8 - 0.0 - - 10 - - - -
28/08:30pm 13.0 W 9 14 1011.5 - 0.0 - - 10 - - - -
28/08:00pm 13.3 W 9 15 1011.0 - 0.0 - - 10 - - - -
28/07:30pm 13.2 W 12 18 1010.7 - 0.0 - - 10 - - - -
28/07:00pm 13.0 W 12 16 1010.3 - 0.0 - - 10 - - - -
28/06:30pm 12.9 W 11 16 1009.8 - 0.0 - - 10 - - - -
28/06:00pm 13.2 WNW 11 17 1009.4 - 0.0 - - 10 - - - -
28/05:30pm 13.7 WNW 10 14 1009.1 - 0.0 - Partly cloudy 10 - - - -
28/05:00pm 14.6 WNW 12 19 1008.7 - 0.0 - Partly cloudy 10 - - - -
28/04:30pm 15.6 WNW 11 21 1008.3 - 0.0 - Partly cloudy 10 - - - -
28/04:00pm 16.2 WNW 14 22 1007.5 - 0.0 - - 10 - - - -
28/03:30pm 16.1 WNW 17 29 1006.7 - 0.0 - - 10 - - - -
28/03:00pm 17.1 W 19 29 1006.2 - 0.0 - - 10 - - - -
28/02:50pm 17.3 W 16 27 1006.0 - 0.0 - - 10 - - - -
28/02:30pm 18.2 W 15 24 1005.8 - 0.0 - - 10 - - - -

Other Formats:

Comma delimited format used in spreadsheet applications
http://www.bom.gov.au/fwo/IDN60701/IDN60701.95784.axf

JavaScript Object Notation format (JSON) in row-major order
http://www.bom.gov.au/fwo/IDN60701/IDN60701.95784.json